Kezdőlap
METAR-TAF:

METAR-TAF

Repülőterek :

Labuan, Malajzia

földrajzi szélesség: 05-18N, földrajzi hosszúság: 115-15E, magasság: 30 m

Jelenlegi meteorológiai megfigyelések

A jelentés 55 perccel ezelõtt készült, 22:00 UTC
Szélcsend
Hőmérséklet 27°C
Páratartalom 94%
Légköri nyomás 1009 hPa
Látótávolság 10 km, vagy több
Kevés felhő 1400 lábon

METAR: WBKL 272200Z 00000KT 9999 FEW014 27/26 Q1009

Idő: 06:55 (22:55 UTC)

Előrejelzés

A jelentés 5 órával és 55 perccel ezelõtt készült, 17:00 UTC
Az előrejelzés 27-én 18 óra UTC és 28-én 18 óra UTC között érvényes
Különbözõ irányokból fújó szél 3 kt
Látótávolság 10 km, vagy több
Kevés felhő 1500 lábon
28-én 10 óra UTC és 28-én 13 óra UTC között ideiglenes
Látótávolság: 5000 m
Kevés felhő 1000 lábon
Kevés felhő 1600 lábon, Cumulonimbus.
Szórványos felhőzet 3000 lábon
zivatar, esõ,

TAF: WBKL 271700Z 2718/2818 VRB03KT 9999 FEW015 TEMPO 2810/2813 5000 TSRA FEW010 FEW016CB SCT030

Meteorológiai megfigyelések és előrejelzések több, mint 4000 repülőtéren (METAR és TAF jelentéseket).

A térképen piros és sárga pontok jelzik az elérhető meteorológiai állomásokat.

Mozgassa az egeret a pont fölött, hogy megjelenjen az állomás neve.

Azután kattintson az időjárási megfigyelések és előrejelzések megtekintéséhez.

A térkép megváltoztatása: kattintson a fekete keresztel jelölt zöld gombra ráközelítéshez, a vonallal jelölt zöld gombra távolításhoz, vagy a zöld nyilakra a szomszédos térképek eléréséhez.


METAR-TAF: